PWSweather.com
Personal Weather Stations
Station Observations

ChardChardGB

Lat: 50.877408, Lon: -2.94964741

Elevation: 341

Station Type: WS3083

http://www.merriott-astro.co.uk/weather/index.htm

Latest ConditionsUpdated 7:20:07 AM GMT Wednesday, Feb 21, 2018
Currently Today's Max Today's Min Today's Average
Temperature 40.8°F4.9°C 44.2°F6.8°C 40.8°F4.9°C 42.8°F6.0°C
Dew Point 32.2°F0.1°C 34.9°F1.6°C 32.2°F0.1°C 33.7°F0.9°C
Winds 4.9 mph ENE7.9 kmh ENE 9.7 mph NE15.6 kmh NE - 5.8 mph 9.3 kmh
Wind Gusts 6.0 mph9.7 kmh 15.2 mph24.5 kmh - -
Humidity 71% 75% 64% 70%
Pressure 29.97 in1014.9 mb 29.97 in1014.9 mb 29.91 in1012.9 mb -
Hour Temp Dew Point Humidity Winds Wind Gusts Pressure Precip Precip Rate Daily Precip Total
07:20 AM 40.8°F4.9°C 32.2°F0.1°C 71% 4.9 mph ENE7.9 kmh ENE 6.0 mph9.7 kmh 29.97 in1014.9 mb 0.00 in0.0 mm 0.00 in0.0 mm 0.00 in0.0 mm
07:10 AM 41.5°F5.3°C 33.2°F0.7°C 72% 4.4 mph E7.1 kmh E 7.6 mph12.2 kmh 29.97 in1014.9 mb 0.00 in0.0 mm 0.00 in0.0 mm 0.00 in0.0 mm
07:00 AM 41.9°F5.5°C 33.9°F1.1°C 73% 4.2 mph ENE6.8 kmh ENE 7.6 mph12.2 kmh 29.96 in1014.6 mb 0.00 in0.0 mm 0.00 in0.0 mm 0.00 in0.0 mm
06:50 AM 42.1°F5.6°C 34.7°F1.5°C 75% 6.5 mph NE10.5 kmh NE 12.1 mph19.5 kmh 29.96 in1014.6 mb 0.00 in0.0 mm 0.00 in0.0 mm 0.00 in0.0 mm
06:40 AM 42.3°F5.7°C 34.9°F1.6°C 75% 5.6 mph NE9.0 kmh NE 11.4 mph18.3 kmh 29.96 in1014.6 mb 0.00 in0.0 mm 0.00 in0.0 mm 0.00 in0.0 mm
06:30 AM 42.3°F5.7°C 34.9°F1.6°C 75% 3.4 mph ENE5.5 kmh ENE 4.5 mph7.2 kmh 29.96 in1014.6 mb 0.00 in0.0 mm 0.00 in0.0 mm 0.00 in0.0 mm
06:20 AM 42.3°F5.7°C 34.9°F1.6°C 75% 5.4 mph ENE8.7 kmh ENE 8.3 mph13.4 kmh 29.95 in1014.2 mb 0.00 in0.0 mm 0.00 in0.0 mm 0.00 in0.0 mm
06:10 AM 42.3°F5.7°C 34.6°F1.4°C 74% 4.4 mph ENE7.1 kmh ENE 6.9 mph11.1 kmh 29.94 in1013.9 mb 0.00 in0.0 mm 0.00 in0.0 mm 0.00 in0.0 mm
06:00 AM 42.4°F5.8°C 34.8°F1.6°C 74% 4.3 mph NE6.9 kmh NE 5.4 mph8.7 kmh 29.95 in1014.2 mb 0.00 in0.0 mm 0.00 in0.0 mm 0.00 in0.0 mm
05:50 AM 42.4°F5.8°C 34.4°F1.3°C 73% 4.2 mph NE6.8 kmh NE 5.4 mph8.7 kmh 29.95 in1014.2 mb 0.00 in0.0 mm 0.00 in0.0 mm 0.00 in0.0 mm
05:40 AM 42.6°F5.9°C 34.6°F1.4°C 73% 3.1 mph NE5.0 kmh NE 5.4 mph8.7 kmh 29.95 in1014.2 mb 0.00 in0.0 mm 0.00 in0.0 mm 0.00 in0.0 mm
05:30 AM 42.6°F5.9°C 34.2°F1.2°C 72% 2.3 mph ENE3.7 kmh ENE 3.8 mph6.1 kmh 29.94 in1013.9 mb 0.00 in0.0 mm 0.00 in0.0 mm 0.00 in0.0 mm
05:20 AM 42.6°F5.9°C 34.2°F1.2°C 72% 2.5 mph NE4.0 kmh NE 5.4 mph8.7 kmh 29.95 in1014.2 mb 0.00 in0.0 mm 0.00 in0.0 mm 0.00 in0.0 mm
05:10 AM 42.8°F6.0°C 34.4°F1.3°C 72% 5.1 mph NE8.2 kmh NE 6.0 mph9.7 kmh 29.94 in1013.9 mb 0.00 in0.0 mm 0.00 in0.0 mm 0.00 in0.0 mm
05:00 AM 42.8°F6.0°C 34.4°F1.3°C 72% 4.8 mph ENE7.7 kmh ENE 5.4 mph8.7 kmh 29.94 in1013.9 mb 0.00 in0.0 mm 0.00 in0.0 mm 0.00 in0.0 mm
04:50 AM 42.8°F6.0°C 34.4°F1.3°C 72% 4.1 mph E6.6 kmh E 5.4 mph8.7 kmh 29.93 in1013.5 mb 0.00 in0.0 mm 0.00 in0.0 mm 0.00 in0.0 mm
04:40 AM 42.8°F6.0°C 34.1°F1.2°C 71% 4.4 mph NE7.1 kmh NE 5.4 mph8.7 kmh 29.93 in1013.5 mb 0.00 in0.0 mm 0.00 in0.0 mm 0.00 in0.0 mm
04:30 AM 42.8°F6.0°C 34.1°F1.2°C 71% 5.7 mph NE9.2 kmh NE 7.6 mph12.2 kmh 29.93 in1013.5 mb 0.00 in0.0 mm 0.00 in0.0 mm 0.00 in0.0 mm
04:20 AM 42.8°F6.0°C 34.1°F1.2°C 71% 5.8 mph NE9.3 kmh NE 7.6 mph12.2 kmh 29.94 in1013.9 mb 0.00 in0.0 mm 0.00 in0.0 mm 0.00 in0.0 mm
04:10 AM 42.8°F6.0°C 34.1°F1.2°C 71% 5.8 mph ENE9.3 kmh ENE 8.3 mph13.4 kmh 29.93 in1013.5 mb 0.00 in0.0 mm 0.00 in0.0 mm 0.00 in0.0 mm
04:00 AM 42.6°F5.9°C 33.9°F1.1°C 71% 6.0 mph ENE9.7 kmh ENE 8.3 mph13.4 kmh 29.93 in1013.5 mb 0.00 in0.0 mm 0.00 in0.0 mm 0.00 in0.0 mm
03:50 AM 42.4°F5.8°C 33.7°F0.9°C 71% 4.9 mph ENE7.9 kmh ENE 6.0 mph9.7 kmh 29.93 in1013.5 mb 0.00 in0.0 mm 0.00 in0.0 mm 0.00 in0.0 mm
03:40 AM 42.4°F5.8°C 33.7°F0.9°C 71% 5.1 mph E8.2 kmh E 6.9 mph11.1 kmh 29.92 in1013.2 mb 0.00 in0.0 mm 0.00 in0.0 mm 0.00 in0.0 mm
03:30 AM 42.4°F5.8°C 33.7°F0.9°C 71% 6.4 mph E10.3 kmh E 7.6 mph12.2 kmh 29.93 in1013.5 mb 0.00 in0.0 mm 0.00 in0.0 mm 0.00 in0.0 mm
03:20 AM 42.3°F5.7°C 33.5°F0.8°C 71% 5.0 mph NE8.0 kmh NE 6.9 mph11.1 kmh 29.93 in1013.5 mb 0.00 in0.0 mm 0.00 in0.0 mm 0.00 in0.0 mm
03:10 AM 42.1°F5.6°C 33.4°F0.8°C 71% 4.7 mph ENE7.6 kmh ENE 5.4 mph8.7 kmh 29.93 in1013.5 mb 0.00 in0.0 mm 0.00 in0.0 mm 0.00 in0.0 mm
03:00 AM 41.9°F5.5°C 33.2°F0.7°C 71% 3.8 mph NE6.1 kmh NE 5.4 mph8.7 kmh 29.93 in1013.5 mb 0.00 in0.0 mm 0.00 in0.0 mm 0.00 in0.0 mm
02:50 AM 42.1°F5.6°C 33.4°F0.8°C 71% 4.8 mph E7.7 kmh E 6.9 mph11.1 kmh 29.93 in1013.5 mb 0.00 in0.0 mm 0.00 in0.0 mm 0.00 in0.0 mm
02:40 AM 42.1°F5.6°C 33.0°F0.6°C 70% 5.0 mph ENE8.0 kmh ENE 6.0 mph9.7 kmh 29.92 in1013.2 mb 0.00 in0.0 mm 0.00 in0.0 mm 0.00 in0.0 mm
02:30 AM 42.3°F5.7°C 33.2°F0.7°C 70% 4.5 mph ENE7.2 kmh ENE 7.6 mph12.2 kmh 29.92 in1013.2 mb 0.00 in0.0 mm 0.00 in0.0 mm 0.00 in0.0 mm
02:20 AM 42.6°F5.9°C 33.2°F0.7°C 69% 5.6 mph NE9.0 kmh NE 9.2 mph14.8 kmh 29.92 in1013.2 mb 0.00 in0.0 mm 0.00 in0.0 mm 0.00 in0.0 mm
02:10 AM 42.8°F6.0°C 33.3°F0.7°C 69% 6.1 mph E9.8 kmh E 6.9 mph11.1 kmh 29.92 in1013.2 mb 0.00 in0.0 mm 0.00 in0.0 mm 0.00 in0.0 mm
02:00 AM 43.0°F6.1°C 33.2°F0.7°C 68% 7.1 mph NE11.4 kmh NE 9.2 mph14.8 kmh 29.92 in1013.2 mb 0.00 in0.0 mm 0.00 in0.0 mm 0.00 in0.0 mm
01:50 AM 43.0°F6.1°C 33.2°F0.7°C 68% 7.1 mph E11.4 kmh E 9.2 mph14.8 kmh 29.92 in1013.2 mb 0.00 in0.0 mm 0.00 in0.0 mm 0.00 in0.0 mm
01:40 AM 43.0°F6.1°C 32.8°F0.4°C 67% 8.3 mph E13.4 kmh E 9.2 mph14.8 kmh 29.92 in1013.2 mb 0.00 in0.0 mm 0.00 in0.0 mm 0.00 in0.0 mm
01:30 AM 43.2°F6.2°C 32.6°F0.3°C 66% 6.6 mph NE10.6 kmh NE 9.8 mph15.8 kmh 29.91 in1012.9 mb 0.00 in0.0 mm 0.00 in0.0 mm 0.00 in0.0 mm
01:20 AM 43.7°F6.5°C 32.7°F0.4°C 65% 9.6 mph NNE15.4 kmh NNE 15.2 mph24.5 kmh 29.92 in1013.2 mb 0.00 in0.0 mm 0.00 in0.0 mm 0.00 in0.0 mm
01:10 AM 43.9°F6.6°C 32.9°F0.5°C 65% 9.6 mph NE15.4 kmh NE 13.6 mph21.9 kmh 29.92 in1013.2 mb 0.00 in0.0 mm 0.00 in0.0 mm 0.00 in0.0 mm
01:00 AM 44.1°F6.7°C 33.1°F0.6°C 65% 9.7 mph NE15.6 kmh NE 13.6 mph21.9 kmh 29.93 in1013.5 mb 0.00 in0.0 mm 0.00 in0.0 mm 0.00 in0.0 mm
12:50 AM 44.2°F6.8°C 33.2°F0.7°C 65% 8.8 mph NE14.2 kmh NE 12.1 mph19.5 kmh 29.93 in1013.5 mb 0.00 in0.0 mm 0.00 in0.0 mm 0.00 in0.0 mm
12:40 AM 44.2°F6.8°C 33.2°F0.7°C 65% 8.4 mph NE13.5 kmh NE 12.1 mph19.5 kmh 29.93 in1013.5 mb 0.00 in0.0 mm 0.00 in0.0 mm 0.00 in0.0 mm
12:30 AM 44.2°F6.8°C 32.8°F0.4°C 64% 8.0 mph NNE12.9 kmh NNE 11.4 mph18.3 kmh 29.93 in1013.5 mb 0.00 in0.0 mm 0.00 in0.0 mm 0.00 in0.0 mm
12:20 AM 44.2°F6.8°C 32.8°F0.4°C 64% 7.9 mph N12.7 kmh N 10.7 mph17.2 kmh 29.93 in1013.5 mb 0.00 in0.0 mm 0.00 in0.0 mm 0.00 in0.0 mm
12:10 AM 44.2°F6.8°C 32.8°F0.4°C 64% 8.1 mph N13.0 kmh N 11.4 mph18.3 kmh 29.93 in1013.5 mb 0.00 in0.0 mm 0.00 in0.0 mm 0.00 in0.0 mm
12:00 AM 44.2°F6.8°C 32.8°F0.4°C 64% 8.0 mph N12.9 kmh N 11.4 mph18.3 kmh 29.93 in1013.5 mb 0.00 in0.0 mm 0.00 in0.0 mm 0.00 in0.0 mm